sensor_id;sensor_type;location;lat;lon;timestamp;pressure;altitude;pressure_sealevel;temperature;humidity
64933;BME280;51446;53.850;10.662;2023-04-09T00:01:21;102768.63;;;5.22;100.00
64933;BME280;51446;53.850;10.662;2023-04-09T00:03:46;102766.19;;;5.12;100.00
64933;BME280;51446;53.850;10.662;2023-04-09T00:06:11;102769.00;;;5.15;100.00
64933;BME280;51446;53.850;10.662;2023-04-09T00:08:37;102774.25;;;5.03;100.00
64933;BME280;51446;53.850;10.662;2023-04-09T00:11:02;102771.53;;;5.01;100.00
64933;BME280;51446;53.850;10.662;2023-04-09T00:13:28;102768.94;;;5.01;100.00
64933;BME280;51446;53.850;10.662;2023-04-09T00:15:53;102777.84;;;5.05;100.00
64933;BME280;51446;53.850;10.662;2023-04-09T00:18:18;102766.97;;;5.11;100.00
64933;BME280;51446;53.850;10.662;2023-04-09T00:20:43;102780.69;;;4.96;100.00
64933;BME280;51446;53.850;10.662;2023-04-09T00:23:09;102778.09;;;4.96;100.00
64933;BME280;51446;53.850;10.662;2023-04-09T00:25:34;102783.50;;;4.99;100.00
64933;BME280;51446;53.850;10.662;2023-04-09T00:28:00;102775.59;;;4.98;100.00
64933;BME280;51446;53.850;10.662;2023-04-09T00:30:27;102776.28;;;4.95;100.00
64933;BME280;51446;53.850;10.662;2023-04-09T00:32:53;102778.88;;;4.95;100.00
64933;BME280;51446;53.850;10.662;2023-04-09T00:35:18;102760.69;;;4.95;100.00
64933;BME280;51446;53.850;10.662;2023-04-09T00:37:44;102773.09;;;4.99;100.00
64933;BME280;51446;53.850;10.662;2023-04-09T00:40:09;102777.41;;;4.99;100.00
64933;BME280;51446;53.850;10.662;2023-04-09T00:42:35;102767.03;;;4.99;100.00
64933;BME280;51446;53.850;10.662;2023-04-09T00:45:02;102773.69;;;4.95;100.00
64933;BME280;51446;53.850;10.662;2023-04-09T00:47:28;102769.63;;;4.99;100.00
64933;BME280;51446;53.850;10.662;2023-04-09T00:49:54;102769.94;;;5.03;100.00
64933;BME280;51446;53.850;10.662;2023-04-09T00:52:20;102763.28;;;5.07;100.00
64933;BME280;51446;53.850;10.662;2023-04-09T00:54:47;102761.13;;;5.01;100.00
64933;BME280;51446;53.850;10.662;2023-04-09T00:57:14;102761.81;;;4.99;100.00
64933;BME280;51446;53.850;10.662;2023-04-09T00:59:39;102761.81;;;4.99;100.00
64933;BME280;51446;53.850;10.662;2023-04-09T01:02:05;102751.56;;;4.89;100.00
64933;BME280;51446;53.850;10.662;2023-04-09T01:04:30;102753.97;;;4.85;100.00
64933;BME280;51446;53.850;10.662;2023-04-09T01:07:05;102751.81;;;4.80;100.00
64933;BME280;51446;53.850;10.662;2023-04-09T01:09:38;102759.16;;;4.74;100.00
64933;BME280;51446;53.850;10.662;2023-04-09T01:12:11;102765.63;;;4.67;100.00
64933;BME280;51446;53.850;10.662;2023-04-09T01:20:08;102766.72;;;4.71;100.00
64933;BME280;51446;53.850;10.662;2023-04-09T01:28:34;102772.50;;;4.78;100.00
64933;BME280;51446;53.850;10.662;2023-04-09T01:31:08;102773.97;;;4.75;100.00
64933;BME280;51446;53.850;10.662;2023-04-09T01:33:36;102776.81;;;4.66;100.00
64933;BME280;51446;53.850;10.662;2023-04-09T01:36:03;102770.63;;;4.64;100.00
64933;BME280;51446;53.850;10.662;2023-04-09T01:38:29;102772.59;;;4.68;100.00
64933;BME280;51446;53.850;10.662;2023-04-09T01:40:55;102776.66;;;4.76;100.00
64933;BME280;51446;53.850;10.662;2023-04-09T01:43:23;102776.22;;;4.82;100.00
64933;BME280;51446;53.850;10.662;2023-04-09T01:45:50;102775.75;;;4.88;100.00
64933;BME280;51446;53.850;10.662;2023-04-09T01:48:16;102770.22;;;4.83;100.00
64933;BME280;51446;53.850;10.662;2023-04-09T01:50:42;102777.22;;;4.96;100.00
64933;BME280;51446;53.850;10.662;2023-04-09T01:53:07;102776.84;;;4.91;100.00
64933;BME280;51446;53.850;10.662;2023-04-09T01:55:33;102779.59;;;4.93;100.00
64933;BME280;51446;53.850;10.662;2023-04-09T01:57:58;102775.38;;;4.95;100.00
64933;BME280;51446;53.850;10.662;2023-04-09T02:00:26;102777.34;;;4.85;100.00
64933;BME280;51446;53.850;10.662;2023-04-09T02:03:05;102772.38;;;4.89;100.00
64933;BME280;51446;53.850;10.662;2023-04-09T02:05:36;102765.66;;;4.92;100.00
64933;BME280;51446;53.850;10.662;2023-04-09T02:08:05;102767.38;;;4.92;100.00
64933;BME280;51446;53.850;10.662;2023-04-09T02:10:34;102765.09;;;4.96;100.00
64933;BME280;51446;53.850;10.662;2023-04-09T02:13:00;102768.94;;;4.90;100.00
64933;BME280;51446;53.850;10.662;2023-04-09T02:15:27;102761.34;;;5.04;100.00
64933;BME280;51446;53.850;10.662;2023-04-09T02:17:54;102760.53;;;5.06;100.00
64933;BME280;51446;53.850;10.662;2023-04-09T02:20:20;102755.22;;;5.04;100.00
64933;BME280;51446;53.850;10.662;2023-04-09T02:22:46;102747.84;;;4.85;100.00
64933;BME280;51446;53.850;10.662;2023-04-09T02:25:11;102750.03;;;5.04;100.00
64933;BME280;51446;53.850;10.662;2023-04-09T02:27:36;102751.53;;;5.00;100.00
64933;BME280;51446;53.850;10.662;2023-04-09T02:30:02;102748.75;;;4.85;100.00
64933;BME280;51446;53.850;10.662;2023-04-09T02:32:28;102746.84;;;4.83;100.00
64933;BME280;51446;53.850;10.662;2023-04-09T02:34:53;102742.41;;;4.82;100.00
64933;BME280;51446;53.850;10.662;2023-04-09T02:37:18;102739.81;;;4.82;100.00
64933;BME280;51446;53.850;10.662;2023-04-09T02:39:43;102744.81;;;4.79;100.00
64933;BME280;51446;53.850;10.662;2023-04-09T02:42:09;102733.69;;;4.93;100.00
64933;BME280;51446;53.850;10.662;2023-04-09T02:44:34;102738.88;;;4.93;100.00
64933;BME280;51446;53.850;10.662;2023-04-09T02:46:59;102734.16;;;4.88;100.00
64933;BME280;51446;53.850;10.662;2023-04-09T02:49:25;102729.00;;;4.76;100.00
64933;BME280;51446;53.850;10.662;2023-04-09T02:51:50;102724.69;;;5.13;100.00
64933;BME280;51446;53.850;10.662;2023-04-09T02:54:15;102726.72;;;5.06;100.00
64933;BME280;51446;53.850;10.662;2023-04-09T02:56:40;102720.38;;;4.89;100.00
64933;BME280;51446;53.850;10.662;2023-04-09T02:59:06;102715.97;;;4.88;100.00
64933;BME280;51446;53.850;10.662;2023-04-09T03:01:31;102711.84;;;5.03;100.00
64933;BME280;51446;53.850;10.662;2023-04-09T03:03:56;102710.28;;;4.93;100.00
64933;BME280;51446;53.850;10.662;2023-04-09T03:06:21;102709.16;;;4.90;100.00
64933;BME280;51446;53.850;10.662;2023-04-09T03:08:47;102710.41;;;4.95;100.00
64933;BME280;51446;53.850;10.662;2023-04-09T03:11:12;102710.59;;;4.98;100.00
64933;BME280;51446;53.850;10.662;2023-04-09T03:13:37;102707.53;;;5.03;100.00
64933;BME280;51446;53.850;10.662;2023-04-09T03:16:02;102707.84;;;5.08;100.00
64933;BME280;51446;53.850;10.662;2023-04-09T03:18:28;102717.50;;;5.22;100.00
64933;BME280;51446;53.850;10.662;2023-04-09T03:20:53;102713.69;;;5.17;100.00
64933;BME280;51446;53.850;10.662;2023-04-09T03:23:18;102711.00;;;5.16;100.00
64933;BME280;51446;53.850;10.662;2023-04-09T03:25:43;102715.72;;;5.21;100.00
64933;BME280;51446;53.850;10.662;2023-04-09T03:28:09;102705.94;;;5.31;100.00
64933;BME280;51446;53.850;10.662;2023-04-09T03:30:34;102711.00;;;5.16;100.00
64933;BME280;51446;53.850;10.662;2023-04-09T03:32:59;102705.94;;;5.06;100.00
64933;BME280;51446;53.850;10.662;2023-04-09T03:35:25;102708.75;;;5.09;100.00
64933;BME280;51446;53.850;10.662;2023-04-09T03:37:50;102713.69;;;5.17;100.00
64933;BME280;51446;53.850;10.662;2023-04-09T03:40:16;102707.06;;;5.34;100.00
64933;BME280;51446;53.850;10.662;2023-04-09T03:42:41;102708.38;;;5.54;100.00
64933;BME280;51446;53.850;10.662;2023-04-09T03:45:07;102710.19;;;5.42;100.00
64933;BME280;51446;53.850;10.662;2023-04-09T03:47:32;102707.00;;;5.46;100.00
64933;BME280;51446;53.850;10.662;2023-04-09T03:49:57;102705.63;;;5.65;100.00
64933;BME280;51446;53.850;10.662;2023-04-09T03:52:23;102700.09;;;5.60;100.00
64933;BME280;51446;53.850;10.662;2023-04-09T03:54:48;102702.56;;;5.45;100.00
64933;BME280;51446;53.850;10.662;2023-04-09T03:57:13;102699.28;;;5.48;100.00
64933;BME280;51446;53.850;10.662;2023-04-09T03:59:38;102700.34;;;5.38;100.00
64933;BME280;51446;53.850;10.662;2023-04-09T04:02:04;102699.84;;;5.30;100.00
64933;BME280;51446;53.850;10.662;2023-04-09T04:04:29;102701.97;;;5.36;100.00
64933;BME280;51446;53.850;10.662;2023-04-09T04:06:55;102702.97;;;5.51;100.00
64933;BME280;51446;53.850;10.662;2023-04-09T04:09:20;102703.81;;;5.25;100.00
64933;BME280;51446;53.850;10.662;2023-04-09T04:11:45;102707.78;;;5.20;100.00
64933;BME280;51446;53.850;10.662;2023-04-09T04:14:11;102706.00;;;5.19;100.00
64933;BME280;51446;53.850;10.662;2023-04-09T04:16:36;102711.38;;;5.09;100.00
64933;BME280;51446;53.850;10.662;2023-04-09T04:19:01;102705.69;;;5.14;100.00
64933;BME280;51446;53.850;10.662;2023-04-09T04:21:26;102707.56;;;5.17;100.00
64933;BME280;51446;53.850;10.662;2023-04-09T04:23:52;102705.56;;;5.13;100.00
64933;BME280;51446;53.850;10.662;2023-04-09T04:26:17;102707.84;;;5.08;100.00
64933;BME280;51446;53.850;10.662;2023-04-09T04:28:43;102706.94;;;5.08;100.00
64933;BME280;51446;53.850;10.662;2023-04-09T04:31:09;102704.56;;;5.11;100.00
64933;BME280;51446;53.850;10.662;2023-04-09T04:33:36;102708.97;;;5.12;100.00
64933;BME280;51446;53.850;10.662;2023-04-09T04:36:05;102714.19;;;5.12;100.00
64933;BME280;51446;53.850;10.662;2023-04-09T04:38:31;102714.84;;;5.09;100.00
64933;BME280;51446;53.850;10.662;2023-04-09T04:40:56;102715.47;;;5.18;100.00
64933;BME280;51446;53.850;10.662;2023-04-09T04:43:21;102716.31;;;5.17;100.00
64933;BME280;51446;53.850;10.662;2023-04-09T04:45:47;102720.31;;;5.26;100.00
64933;BME280;51446;53.850;10.662;2023-04-09T04:48:12;102724.72;;;5.27;100.00
64933;BME280;51446;53.850;10.662;2023-04-09T04:50:37;102724.72;;;5.27;100.00
64933;BME280;51446;53.850;10.662;2023-04-09T04:53:02;102728.00;;;5.24;100.00
64933;BME280;51446;53.850;10.662;2023-04-09T04:55:28;102724.41;;;5.22;100.00
64933;BME280;51446;53.850;10.662;2023-04-09T04:57:53;102725.50;;;5.26;100.00
64933;BME280;51446;53.850;10.662;2023-04-09T05:00:18;102726.13;;;5.21;100.00
64933;BME280;51446;53.850;10.662;2023-04-09T05:02:44;102725.19;;;5.21;100.00
64933;BME280;51446;53.850;10.662;2023-04-09T05:05:09;102733.44;;;5.27;100.00
64933;BME280;51446;53.850;10.662;2023-04-09T05:07:34;102724.03;;;5.29;100.00
64933;BME280;51446;53.850;10.662;2023-04-09T05:10:00;102722.88;;;5.37;100.00
64933;BME280;51446;53.850;10.662;2023-04-09T05:12:25;102727.63;;;5.31;100.00
64933;BME280;51446;53.850;10.662;2023-04-09T05:14:50;102728.00;;;5.24;100.00
64933;BME280;51446;53.850;10.662;2023-04-09T05:17:16;102734.66;;;5.58;100.00
64933;BME280;51446;53.850;10.662;2023-04-09T05:19:41;102731.25;;;5.33;100.00
64933;BME280;51446;53.850;10.662;2023-04-09T05:22:06;102726.47;;;5.39;100.00
64933;BME280;51446;53.850;10.662;2023-04-09T05:24:31;102726.38;;;5.38;100.00
64933;BME280;51446;53.850;10.662;2023-04-09T05:26:57;102727.88;;;5.34;100.00
64933;BME280;51446;53.850;10.662;2023-04-09T05:29:22;102731.63;;;5.26;100.00
64933;BME280;51446;53.850;10.662;2023-04-09T05:31:47;102732.47;;;5.38;100.00
64933;BME280;51446;53.850;10.662;2023-04-09T05:34:13;102731.66;;;5.39;100.00
64933;BME280;51446;53.850;10.662;2023-04-09T05:36:38;102740.75;;;5.71;100.00
64933;BME280;51446;53.850;10.662;2023-04-09T05:39:03;102734.78;;;5.47;100.00
64933;BME280;51446;53.850;10.662;2023-04-09T05:41:28;102740.22;;;5.50;100.00
64933;BME280;51446;53.850;10.662;2023-04-09T05:43:54;102735.59;;;5.46;100.00
64933;BME280;51446;53.850;10.662;2023-04-09T05:46:19;102738.78;;;5.42;100.00
64933;BME280;51446;53.850;10.662;2023-04-09T05:48:44;102736.44;;;5.59;100.00
64933;BME280;51446;53.850;10.662;2023-04-09T05:51:10;102741.97;;;5.77;100.00
64933;BME280;51446;53.850;10.662;2023-04-09T05:53:35;102733.69;;;5.82;100.00
64933;BME280;51446;53.850;10.662;2023-04-09T05:56:01;102725.06;;;5.83;100.00
64933;BME280;51446;53.850;10.662;2023-04-09T05:58:29;102722.69;;;5.86;100.00
64933;BME280;51446;53.850;10.662;2023-04-09T06:00:54;102718.41;;;6.00;100.00
64933;BME280;51446;53.850;10.662;2023-04-09T06:03:20;102716.16;;;5.93;100.00
64933;BME280;51446;53.850;10.662;2023-04-09T06:05:45;102719.53;;;5.79;100.00
64933;BME280;51446;53.850;10.662;2023-04-09T06:08:11;102718.38;;;5.87;100.00
64933;BME280;51446;53.850;10.662;2023-04-09T06:10:37;102722.69;;;5.86;100.00
64933;BME280;51446;53.850;10.662;2023-04-09T06:13:02;102709.34;;;5.82;100.00
64933;BME280;51446;53.850;10.662;2023-04-09T06:15:27;102728.88;;;5.75;100.00
64933;BME280;51446;53.850;10.662;2023-04-09T06:17:52;102721.56;;;5.83;100.00
64933;BME280;51446;53.850;10.662;2023-04-09T06:20:18;102721.75;;;5.86;100.00
64933;BME280;51446;53.850;10.662;2023-04-09T06:22:43;102724.56;;;5.89;100.00
64933;BME280;51446;53.850;10.662;2023-04-09T06:25:08;102722.88;;;5.89;100.00
64933;BME280;51446;53.850;10.662;2023-04-09T06:27:34;102728.81;;;6.00;100.00
64933;BME280;51446;53.850;10.662;2023-04-09T06:29:59;102731.53;;;6.02;100.00
64933;BME280;51446;53.850;10.662;2023-04-09T06:32:24;102737.94;;;6.07;100.00
64933;BME280;51446;53.850;10.662;2023-04-09T06:34:50;102736.13;;;6.06;100.00
64933;BME280;51446;53.850;10.662;2023-04-09T06:37:15;102735.34;;;6.07;100.00
64933;BME280;51446;53.850;10.662;2023-04-09T06:39:40;102736.44;;;6.11;100.00
64933;BME280;51446;53.850;10.662;2023-04-09T06:42:06;102741.34;;;6.19;100.00
64933;BME280;51446;53.850;10.662;2023-04-09T06:44:32;102735.34;;;6.20;100.00
64933;BME280;51446;53.850;10.662;2023-04-09T06:46:57;102739.47;;;6.17;100.00
64933;BME280;51446;53.850;10.662;2023-04-09T06:49:23;102742.06;;;6.17;100.00
64933;BME280;51446;53.850;10.662;2023-04-09T06:51:48;102738.88;;;6.21;100.00
64933;BME280;51446;53.850;10.662;2023-04-09T06:54:13;102741.66;;;6.24;100.00
64933;BME280;51446;53.850;10.662;2023-04-09T06:56:38;102743.44;;;6.25;100.00
64933;BME280;51446;53.850;10.662;2023-04-09T06:59:04;102743.78;;;6.30;100.00
64933;BME280;51446;53.850;10.662;2023-04-09T07:01:29;102746.16;;;6.40;100.00
64933;BME280;51446;53.850;10.662;2023-04-09T07:03:54;102736.59;;;6.54;100.00
64933;BME280;51446;53.850;10.662;2023-04-09T07:06:20;102734.00;;;6.67;100.00
64933;BME280;51446;53.850;10.662;2023-04-09T07:08:45;102736.88;;;6.72;100.00
64933;BME280;51446;53.850;10.662;2023-04-09T07:11:11;102735.34;;;6.75;100.00
64933;BME280;51446;53.850;10.662;2023-04-09T07:13:36;102737.31;;;6.65;100.00
64933;BME280;51446;53.850;10.662;2023-04-09T07:16:01;102742.09;;;6.72;100.00
64933;BME280;51446;53.850;10.662;2023-04-09T07:18:27;102742.91;;;6.84;100.00
64933;BME280;51446;53.850;10.662;2023-04-09T07:20:52;102741.53;;;6.91;100.00
64933;BME280;51446;53.850;10.662;2023-04-09T07:23:17;102729.94;;;6.86;100.00
64933;BME280;51446;53.850;10.662;2023-04-09T07:25:43;102742.16;;;6.87;100.00
64933;BME280;51446;53.850;10.662;2023-04-09T07:28:08;102740.59;;;7.04;100.00
64933;BME280;51446;53.850;10.662;2023-04-09T07:30:34;102734.63;;;7.20;100.00
64933;BME280;51446;53.850;10.662;2023-04-09T07:32:59;102742.88;;;7.12;100.00
64933;BME280;51446;53.850;10.662;2023-04-09T07:35:25;102739.31;;;7.25;100.00
64933;BME280;51446;53.850;10.662;2023-04-09T07:37:50;102732.06;;;7.06;100.00
64933;BME280;51446;53.850;10.662;2023-04-09T07:40:15;102733.16;;;6.82;100.00
64933;BME280;51446;53.850;10.662;2023-04-09T07:42:41;102740.00;;;6.66;100.00
64933;BME280;51446;53.850;10.662;2023-04-09T07:45:06;102739.72;;;6.62;100.00
64933;BME280;51446;53.850;10.662;2023-04-09T07:47:32;102750.25;;;6.63;100.00
64933;BME280;51446;53.850;10.662;2023-04-09T07:49:57;102743.13;;;6.60;100.00
64933;BME280;51446;53.850;10.662;2023-04-09T07:52:23;102738.75;;;6.88;100.00
64933;BME280;51446;53.850;10.662;2023-04-09T07:54:48;102741.69;;;6.79;100.00
64933;BME280;51446;53.850;10.662;2023-04-09T07:57:13;102745.19;;;6.80;100.00
64933;BME280;51446;53.850;10.662;2023-04-09T07:59:38;102744.94;;;6.90;100.00
64933;BME280;51446;53.850;10.662;2023-04-09T08:02:04;102745.50;;;6.84;100.00
64933;BME280;51446;53.850;10.662;2023-04-09T08:04:30;102742.94;;;6.99;100.00
64933;BME280;51446;53.850;10.662;2023-04-09T08:06:55;102739.22;;;7.24;100.00
64933;BME280;51446;53.850;10.662;2023-04-09T08:09:20;102738.09;;;7.34;100.00
64933;BME280;51446;53.850;10.662;2023-04-09T08:11:47;102736.59;;;7.52;100.00
64933;BME280;51446;53.850;10.662;2023-04-09T08:14:13;102735.66;;;7.52;100.00
64933;BME280;51446;53.850;10.662;2023-04-09T08:16:40;102730.72;;;7.41;100.00
64933;BME280;51446;53.850;10.662;2023-04-09T08:19:06;102737.38;;;7.66;100.00
64933;BME280;51446;53.850;10.662;2023-04-09T08:21:32;102727.13;;;7.84;100.00
64933;BME280;51446;53.850;10.662;2023-04-09T08:23:57;102727.50;;;8.05;100.00
64933;BME280;51446;53.850;10.662;2023-04-09T08:26:28;102736.88;;;7.87;100.00
64933;BME280;51446;53.850;10.662;2023-04-09T08:28:53;102735.88;;;7.99;100.00
64933;BME280;51446;53.850;10.662;2023-04-09T08:31:19;102737.31;;;7.94;100.00
64933;BME280;51446;53.850;10.662;2023-04-09T08:33:44;102731.56;;;7.85;100.00
64933;BME280;51446;53.850;10.662;2023-04-09T08:36:10;102729.28;;;7.76;100.00
64933;BME280;51446;53.850;10.662;2023-04-09T08:38:35;102736.50;;;7.66;100.00
64933;BME280;51446;53.850;10.662;2023-04-09T08:41:01;102737.13;;;7.76;100.00
64933;BME280;51446;53.850;10.662;2023-04-09T08:43:27;102734.72;;;7.79;100.00
64933;BME280;51446;53.850;10.662;2023-04-09T08:45:53;102730.66;;;7.99;100.00
64933;BME280;51446;53.850;10.662;2023-04-09T08:48:23;102728.22;;;7.88;100.00
64933;BME280;51446;53.850;10.662;2023-04-09T08:50:48;102731.00;;;8.06;100.00
64933;BME280;51446;53.850;10.662;2023-04-09T08:53:14;102734.34;;;8.03;100.00
64933;BME280;51446;53.850;10.662;2023-04-09T08:55:44;102730.34;;;8.25;100.00
64933;BME280;51446;53.850;10.662;2023-04-09T08:58:09;102734.44;;;8.51;100.00
64933;BME280;51446;53.850;10.662;2023-04-09T09:00:36;102730.47;;;8.58;100.00
64933;BME280;51446;53.850;10.662;2023-04-09T09:03:06;102729.97;;;8.48;100.00
64933;BME280;51446;53.850;10.662;2023-04-09T09:05:40;102733.50;;;8.34;100.00
64933;BME280;51446;53.850;10.662;2023-04-09T09:08:10;102737.25;;;8.39;100.00
64933;BME280;51446;53.850;10.662;2023-04-09T09:10:41;102733.78;;;8.87;100.00
64933;BME280;51446;53.850;10.662;2023-04-09T09:13:25;102737.41;;;9.05;100.00
64933;BME280;51446;53.850;10.662;2023-04-09T09:16:10;102734.41;;;8.66;100.00
64933;BME280;51446;53.850;10.662;2023-04-09T09:18:38;102726.13;;;8.58;100.00
64933;BME280;51446;53.850;10.662;2023-04-09T09:21:11;102727.75;;;8.88;100.00
64933;BME280;51446;53.850;10.662;2023-04-09T09:23:36;102723.41;;;8.72;100.00
64933;BME280;51446;53.850;10.662;2023-04-09T09:26:13;102728.22;;;8.80;100.00
64933;BME280;51446;53.850;10.662;2023-04-09T09:28:38;102731.66;;;8.96;100.00
64933;BME280;51446;53.850;10.662;2023-04-09T09:31:08;102729.78;;;8.93;100.00
64933;BME280;51446;53.850;10.662;2023-04-09T09:33:33;102724.44;;;8.75;100.00
64933;BME280;51446;53.850;10.662;2023-04-09T09:35:59;102734.81;;;8.57;100.00
64933;BME280;51446;53.850;10.662;2023-04-09T09:38:27;102736.97;;;8.49;100.00
64933;BME280;51446;53.850;10.662;2023-04-09T09:40:53;102729.31;;;8.38;100.00
64933;BME280;51446;53.850;10.662;2023-04-09T09:43:19;102726.88;;;8.56;100.00
64933;BME280;51446;53.850;10.662;2023-04-09T09:45:45;102731.88;;;8.67;100.00
64933;BME280;51446;53.850;10.662;2023-04-09T09:48:11;102726.69;;;8.38;100.00
64933;BME280;51446;53.850;10.662;2023-04-09T09:50:38;102730.47;;;8.58;100.00
64933;BME280;51446;53.850;10.662;2023-04-09T09:53:07;102730.31;;;8.71;100.00
64933;BME280;51446;53.850;10.662;2023-04-09T09:55:36;102728.34;;;8.67;100.00
64933;BME280;51446;53.850;10.662;2023-04-09T09:58:08;102729.19;;;8.82;100.00
64933;BME280;51446;53.850;10.662;2023-04-09T10:00:38;102719.25;;;8.92;100.00
64933;BME280;51446;53.850;10.662;2023-04-09T10:03:13;102722.25;;;8.99;100.00
64933;BME280;51446;53.850;10.662;2023-04-09T10:05:39;102716.13;;;9.15;100.00
64933;BME280;51446;53.850;10.662;2023-04-09T10:08:05;102714.88;;;9.09;100.00
64933;BME280;51446;53.850;10.662;2023-04-09T10:10:31;102717.44;;;9.24;100.00
64933;BME280;51446;53.850;10.662;2023-04-09T10:12:57;102712.44;;;8.95;100.00
64933;BME280;51446;53.850;10.662;2023-04-09T10:15:24;102714.88;;;9.09;100.00
64933;BME280;51446;53.850;10.662;2023-04-09T10:17:50;102712.19;;;9.24;100.00
64933;BME280;51446;53.850;10.662;2023-04-09T10:20:27;102719.31;;;9.10;100.00
64933;BME280;51446;53.850;10.662;2023-04-09T10:22:53;102713.00;;;9.23;100.00
64933;BME280;51446;53.850;10.662;2023-04-09T10:25:19;102711.78;;;9.16;100.00
64933;BME280;51446;53.850;10.662;2023-04-09T10:27:45;102707.69;;;9.05;100.00
64933;BME280;51446;53.850;10.662;2023-04-09T10:30:31;102716.78;;;8.95;100.00
64933;BME280;51446;53.850;10.662;2023-04-09T10:33:11;102713.53;;;8.51;100.00
64933;BME280;51446;53.850;10.662;2023-04-09T10:35:36;102713.06;;;8.43;100.00
64933;BME280;51446;53.850;10.662;2023-04-09T10:38:02;102716.03;;;8.81;100.00
64933;BME280;51446;53.850;10.662;2023-04-09T10:40:27;102709.34;;;9.02;100.00
64933;BME280;51446;53.850;10.662;2023-04-09T10:42:54;102709.31;;;8.70;100.00
64933;BME280;51446;53.850;10.662;2023-04-09T10:45:20;102714.38;;;8.83;100.00
64933;BME280;51446;53.850;10.662;2023-04-09T10:47:48;102712.41;;;8.62;100.00
64933;BME280;51446;53.850;10.662;2023-04-09T10:50:19;102709.25;;;9.01;100.00
64933;BME280;51446;53.850;10.662;2023-04-09T10:52:45;102717.63;;;8.62;100.00
64933;BME280;51446;53.850;10.662;2023-04-09T10:55:36;102711.84;;;8.68;100.00
64933;BME280;51446;53.850;10.662;2023-04-09T10:58:03;102709.84;;;8.79;100.00
64933;BME280;51446;53.850;10.662;2023-04-09T11:00:29;102710.72;;;8.96;100.00
64933;BME280;51446;53.850;10.662;2023-04-09T11:03:09;102706.06;;;9.07;100.00
64933;BME280;51446;53.850;10.662;2023-04-09T11:05:38;102703.78;;;9.13;100.00
64933;BME280;51446;53.850;10.662;2023-04-09T11:08:11;102705.81;;;9.18;100.00
64933;BME280;51446;53.850;10.662;2023-04-09T11:10:39;102694.50;;;9.36;100.00
64933;BME280;51446;53.850;10.662;2023-04-09T11:13:05;102693.59;;;9.35;100.00
64933;BME280;51446;53.850;10.662;2023-04-09T11:15:33;102698.84;;;9.70;100.00
64933;BME280;51446;53.850;10.662;2023-04-09T11:17:59;102691.28;;;9.58;100.00
64933;BME280;51446;53.850;10.662;2023-04-09T11:20:26;102695.19;;;10.02;100.00
64933;BME280;51446;53.850;10.662;2023-04-09T11:22:53;102688.97;;;10.18;100.00
64933;BME280;51446;53.850;10.662;2023-04-09T11:25:26;102688.47;;;10.07;100.00
64933;BME280;51446;53.850;10.662;2023-04-09T11:27:52;102694.91;;;10.50;100.00
64933;BME280;51446;53.850;10.662;2023-04-09T11:30:18;102683.28;;;10.63;100.00
64933;BME280;51446;53.850;10.662;2023-04-09T11:32:44;102685.28;;;10.69;100.00
64933;BME280;51446;53.850;10.662;2023-04-09T11:35:11;102688.38;;;10.80;100.00
64933;BME280;51446;53.850;10.662;2023-04-09T11:37:37;102690.28;;;10.45;100.00
64933;BME280;51446;53.850;10.662;2023-04-09T11:40:03;102687.50;;;10.05;100.00
64933;BME280;51446;53.850;10.662;2023-04-09T11:42:30;102694.03;;;9.61;100.00
64933;BME280;51446;53.850;10.662;2023-04-09T11:44:55;102688.88;;;9.28;100.00
64933;BME280;51446;53.850;10.662;2023-04-09T11:47:21;102692.72;;;9.35;100.00
64933;BME280;51446;53.850;10.662;2023-04-09T11:49:46;102687.72;;;9.23;100.00
64933;BME280;51446;53.850;10.662;2023-04-09T11:52:12;102691.91;;;9.03;100.00
64933;BME280;51446;53.850;10.662;2023-04-09T11:54:40;102694.53;;;9.19;100.00
64933;BME280;51446;53.850;10.662;2023-04-09T11:57:05;102684.63;;;8.97;100.00
64933;BME280;51446;53.850;10.662;2023-04-09T11:59:31;102689.13;;;9.00;100.00
64933;BME280;51446;53.850;10.662;2023-04-09T12:01:57;102687.16;;;8.96;100.00
64933;BME280;51446;53.850;10.662;2023-04-09T12:04:23;102674.09;;;9.12;100.00
64933;BME280;51446;53.850;10.662;2023-04-09T12:06:48;102684.06;;;9.19;100.00
64933;BME280;51446;53.850;10.662;2023-04-09T12:09:14;102682.03;;;9.14;100.00
64933;BME280;51446;53.850;10.662;2023-04-09T12:11:42;102670.03;;;9.35;100.00
64933;BME280;51446;53.850;10.662;2023-04-09T12:14:12;102674.72;;;9.59;100.00
64933;BME280;51446;53.850;10.662;2023-04-09T12:16:38;102682.25;;;9.35;100.00
64933;BME280;51446;53.850;10.662;2023-04-09T12:19:06;102675.00;;;9.47;100.00
64933;BME280;51446;53.850;10.662;2023-04-09T12:21:45;102666.19;;;9.45;100.00
64933;BME280;51446;53.850;10.662;2023-04-09T12:24:14;102675.66;;;9.96;100.00
64933;BME280;51446;53.850;10.662;2023-04-09T12:26:40;102677.44;;;9.97;100.00
64933;BME280;51446;53.850;10.662;2023-04-09T12:29:05;102669.03;;;9.68;100.00
64933;BME280;51446;53.850;10.662;2023-04-09T12:31:30;102674.59;;;9.74;100.00
64933;BME280;51446;53.850;10.662;2023-04-09T12:33:55;102672.09;;;9.59;100.00
64933;BME280;51446;53.850;10.662;2023-04-09T12:36:21;102668.06;;;9.66;100.00
64933;BME280;51446;53.850;10.662;2023-04-09T12:38:47;102678.19;;;10.12;100.00
64933;BME280;51446;53.850;10.662;2023-04-09T12:41:13;102664.81;;;10.06;100.00
64933;BME280;51446;53.850;10.662;2023-04-09T12:43:38;102676.78;;;10.19;100.00
64933;BME280;51446;53.850;10.662;2023-04-09T12:46:03;102667.31;;;10.22;100.00
64933;BME280;51446;53.850;10.662;2023-04-09T12:48:29;102670.41;;;10.32;100.00